AKL weather

Auckland International Airport
Auckland, Auckland Region, New Zealand

Public forecast

Using degrees Celsius for public forecast. Weather courtesy of forecast.io.

Current aviation weather report (METAR) for Auckland International Airport

Retrieved 2020/02/16 21:30 UTC (0 seconds ago):

NZAA 162130Z AUTO 02011KT 350V070 9999 FEW022/// 25/18 Q1019 NOSIG

Aviation forecast (TAF) for Auckland International Airport

Retrieved 2020/02/16 18:12 UTC (3 hours ago):

TAF TAF NZAA 161709Z 1618/1718 04008KT 9999 SCT025